• Join FlightAware (Why Join?)
  • Login
  • US Flag 
05:00PM EDT


 

Airport Tracker/Info


-or-


 

Live Flight TrackerFlight Track Log ✈ FFT791 ✈ 12-May-2013 ✈ KDEN - KPDX

Flight Track Log - Related Links

Times and Time Zones

All times are in EDT time to prevent confusion due to time zone crossing. See the FFT791 flight status page for this flight to view local times or setup timezone preferences in your user account.

Time Position Orientation Groundspeed Altitude Reporting Facility
EDT Latitude Longitude Course Direction KTS MPH feet Rate Location/Type
11:37AM 39.8333 -104.7500 308° West 181 208 6,500  Level Denver TRACON
11:38AM 39.8561 -104.7875 308° West 193 222 7,200 1,320 Climbing Denver Center
11:39AM 39.8817 -104.8831 289° West 272 313 8,900 2,160 Climbing Denver Center
11:40AM 39.8942 -104.9864 279° West 289 333 11,700 2,760 Climbing Denver Center
11:41AM 39.9072 -105.0989 279° West 292 336 14,700 1,920 Climbing Denver Center
11:42AM 39.9203 -105.2128 279° West 321 369 15,700 1,620 Climbing Denver Center
11:43AM 39.9372 -105.3508 279° West 355 409 18,100 1,740 Climbing Denver Center
11:44AM 39.9514 -105.4800 278° West 361 415 19,300 1,320 Climbing Denver Center
11:45AM 39.9678 -105.6169 279° West 381 438 20,900 1,620 Climbing Denver Center
11:47AM 39.9728 -105.7978 272° West 410 472 23,100 1,620 Climbing Denver Center
11:48AM 39.9736 -105.9425 270° West 399 459 24,600 1,260 Climbing Denver Center
11:49AM 39.9836 -106.0961 275° West 420 483 25,800 1,200 Climbing Denver Center
11:50AM 39.9931 -106.2511 275° West 429 494 27,200 1,200 Climbing Denver Center
11:51AM 40.0250 -106.4006 286° West 434 499 28,300 1,080 Climbing Denver Center
11:52AM 40.0958 -106.5631 300° West 432 497 29,500 960 Climbing Denver Center
11:53AM 40.1533 -106.6969 299° West 440 506 30,400 1,200 Climbing Denver Center
11:54AM 40.2169 -106.8422 300° West 442 509 32,100 1,320 Climbing Denver Center
11:55AM 40.2764 -106.9853 299° West 435 501 33,200 900 Climbing Denver Center
11:56AM 40.3414 -107.1356 300° West 426 490 34,000 360 Climbing Denver Center
11:57AM 40.3953 -107.2636 299° West 420 483 34,000  Level Denver Center
11:58AM 40.4608 -107.4203 299° West 436 502 34,000  Level Denver Center
11:59AM 40.5167 -107.5558 298° West 441 507 34,000  Level Denver Center
12:00PM 40.5739 -107.6908 299° West 442 509 34,000  Level Denver Center
12:01PM 40.6397 -107.8486 299° West 441 507 34,000  Level Denver Center
12:02PM 40.6958 -107.9842 299° West 443 510 34,000  Level Denver Center
12:03PM 40.7586 -108.1372 298° West 440 506 34,000  Level Denver Center
12:04PM 40.8239 -108.2958 299° West 441 507 34,000  Level Denver Center
12:05PM 40.8778 -108.4306 298° West 435 501 34,000  Level Denver Center
12:06PM 40.8967 -108.4781 298° West 440 506 34,000  Level Salt Lake Center
12:07PM 40.9611 -108.6364 298° West 439 505 34,000  Level Salt Lake Center
12:08PM 41.0156 -108.7717 298° West 434 499 34,000  Level Salt Lake Center
12:09PM 41.0792 -108.9325 298° West 438 504 34,000  Level Salt Lake Center
12:10PM 41.1344 -109.0689 298° West 437 503 34,000  Level Salt Lake Center
12:11PM 41.1872 -109.2058 297° West 433 498 34,000  Level Salt Lake Center
12:12PM 41.2503 -109.3658 298° West 433 498 34,000  Level Salt Lake Center
12:13PM 41.3044 -109.5036 298° West 435 501 34,000  Level Salt Lake Center
12:14PM 41.3667 -109.6619 298° West 431 496 34,000  Level Salt Lake Center
12:15PM 41.4200 -109.8003 297° West 435 501 34,000  Level Salt Lake Center
12:16PM 41.4728 -109.9350 298° West 429 494 34,000  Level Salt Lake Center
12:17PM 41.5336 -110.0931 297° West 429 494 34,000  Level Salt Lake Center
12:18PM 41.5861 -110.2294 297° West 431 496 34,000  Level Salt Lake Center
12:19PM 41.6458 -110.3892 297° West 430 495 34,000  Level Salt Lake Center
12:20PM 41.6989 -110.5278 297° West 435 501 34,000 240 Level Salt Lake Center
12:21PM 41.7503 -110.6658 297° West 433 498 34,500 900 Climbing Salt Lake Center
12:22PM 41.8117 -110.8261 297° West 433 498 35,900 720 Climbing Salt Lake Center
12:23PM 41.8661 -110.9714 297° West 426 490 36,000  Climbing Salt Lake Center
12:24PM 41.9181 -111.1142 296° West 428 493 36,000  Level Salt Lake Center
12:25PM 41.9708 -111.2567 297° West 429 494 36,000 -60 Level Salt Lake Center
12:26PM 42.0225 -111.3972 296° West 423 487 35,900  Descending Salt Lake Center
12:27PM 42.0758 -111.5414 297° West 431 496 36,000  Climbing Salt Lake Center
12:28PM 42.1375 -111.7119 296° West 425 489 36,000  Level Salt Lake Center
12:29PM 42.1892 -111.8542 296° West 425 489 36,000  Level Salt Lake Center
12:30PM 42.2411 -111.9958 296° West 424 488 36,000  Level Salt Lake Center
12:31PM 42.2922 -112.1383 296° West 424 488 36,000  Level Salt Lake Center
12:32PM 42.3436 -112.2806 296° West 424 488 36,000  Level Salt Lake Center
12:33PM 42.3933 -112.4272 295° West 430 495 36,000  Level Salt Lake Center
12:34PM 42.4475 -112.5689 297° West 426 490 36,000  Level Salt Lake Center
12:35PM 42.5156 -112.7361 299° West 426 490 36,000  Level Salt Lake Center
12:36PM 42.5711 -112.8781 298° West 427 491 36,000  Level Salt Lake Center
12:37PM 42.6275 -113.0189 299° West 426 490 36,000  Level Salt Lake Center
12:38PM 42.6831 -113.1594 298° West 425 489 36,000  Level Salt Lake Center
12:39PM 42.7439 -113.3122 299° West 423 487 36,000  Level Salt Lake Center
12:41PM 42.7958 -113.4464 298° West 419 482 36,000  Level Salt Lake Center
12:42PM 42.8572 -113.6036 298° West 419 482 36,000  Level Salt Lake Center
12:43PM 42.9086 -113.7372 298° West 416 479 36,000  Level Salt Lake Center
12:44PM 42.9639 -113.8917 296° West 426 490 36,000  Level Salt Lake Center
12:45PM 43.0178 -114.0331 298° West 422 486 36,000  Level Salt Lake Center
12:46PM 43.0719 -114.1728 298° West 418 481 36,000  Level Salt Lake Center
12:47PM 43.1311 -114.3197 299° West 420 483 36,000  Level Salt Lake Center
12:48PM 43.1814 -114.4547 297° West 415 478 36,000  Level Salt Lake Center
12:49PM 43.2397 -114.6122 297° West 415 478 36,000  Level Salt Lake Center
12:50PM 43.2908 -114.7469 298° West 415 478 36,000  Level Salt Lake Center
12:51PM 43.3497 -114.9064 297° West 418 481 36,000  Level Salt Lake Center
12:52PM 43.4011 -115.0422 298° West 417 480 36,000  Level Salt Lake Center
12:53PM 43.4506 -115.1789 297° West 417 480 36,000  Level Salt Lake Center
12:54PM 43.5089 -115.3394 297° West 419 482 36,000  Level Salt Lake Center
12:55PM 43.5592 -115.4761 297° West 417 480 36,000  Level Salt Lake Center
12:56PM 43.6169 -115.6358 297° West 417 480 36,000  Level Salt Lake Center
12:57PM 43.6661 -115.7742 296° West 420 483 36,000  Level Salt Lake Center
12:58PM 43.7158 -115.9133 296° West 421 484 36,000  Level Salt Lake Center
12:59PM 43.7731 -116.0767 296° West 421 484 36,000  Level Salt Lake Center
01:00PM 43.8217 -116.2156 296° West 417 480 36,000  Level Salt Lake Center
01:01PM 43.8803 -116.3783 297° West 419 482 36,000  Level Salt Lake Center
01:02PM 43.9286 -116.5181 296° West 418 481 36,000  Level Salt Lake Center
01:03PM 43.9769 -116.6569 296° West 417 480 36,000  Level Salt Lake Center
01:04PM 44.0342 -116.8203 296° West 420 483 36,000  Level Salt Lake Center
01:05PM 44.0819 -116.9608 295° West 421 484 36,000  Level Salt Lake Center
01:06PM 44.1308 -117.1033 296° West 426 490 36,000  Level Salt Lake Center
01:07PM 44.1881 -117.2678 296° West 424 488 36,000  Level Salt Lake Center
01:08PM 44.2347 -117.4089 295° West 419 482 36,000  Level Salt Lake Center
01:09PM 44.2897 -117.5728 295° West 416 479 36,000  Level Salt Lake Center
01:10PM 44.3378 -117.7136 296° West 417 480 36,000  Level Salt Lake Center
01:11PM 44.3836 -117.8533 295° West 413 475 36,000  Level Salt Lake Center
01:12PM 44.4381 -118.0158 295° West 413 475 36,000  Level Salt Lake Center
01:13PM 44.4842 -118.1561 295° West 413 475 36,000  Level Salt Lake Center
01:14PM 44.5028 -118.2128 295° West 412 474 36,000  Level Seattle Center
01:15PM 44.5492 -118.3572 294° West 408 470 36,000  Level Seattle Center
01:15PM 44.5789 -118.4447 296° West 410 472 36,000  Level Salt Lake Center
01:16PM 44.6250 -118.5886 294° West 407 468 36,000  Level Salt Lake Center
01:17PM 44.6439 -118.6472 294° West 410 472 36,000  Level Seattle Center
01:18PM 44.6903 -118.7903 295° West 406 467 36,000  Level Seattle Center
01:19PM 44.7350 -118.9306 294° West 397 457 36,000  Level Seattle Center
01:20PM 44.7819 -119.0753 295° West 399 459 36,000  Level Seattle Center
01:21PM 44.8258 -119.2139 294° West 398 458 36,000  Level Seattle Center
01:22PM 44.8700 -119.3544 294° West 395 455 36,000  Level Seattle Center
01:23PM 44.9133 -119.4944 294° West 393 452 36,000 -300 Level Seattle Center
01:24PM 44.9656 -119.6636 294° West 393 452 35,400 -1,140 Descending Seattle Center
01:25PM 45.0092 -119.8025 294° West 394 453 33,700 -1,680 Descending Seattle Center
01:26PM 45.0528 -119.9450 293° West 408 470 32,100 -1,320 Descending Seattle Center
01:27PM 45.0978 -120.0925 293° West 416 479 31,100 -840 Descending Seattle Center
01:28PM 45.1414 -120.2400 293° West 412 474 30,500 -600 Descending Seattle Center
01:29PM 45.1861 -120.3886 293° West 411 473 30,000 -300 Descending Seattle Center
01:30PM 45.2308 -120.5367 293° West 411 473 30,000 -900 Level Seattle Center
01:31PM 45.2758 -120.6861 293° West 413 475 28,200 -2,040 Descending Seattle Center
01:32PM 45.3178 -120.8297 293° West 397 457 25,900 -2,580 Descending Seattle Center
01:33PM 45.3664 -120.9956 293° West 381 438 23,000 -2,460 Descending Seattle Center
01:34PM 45.4069 -121.1297 293° West 371 427 20,900 -2,040 Descending Seattle Center
01:35PM 45.4353 -121.2586 287° West 345 397 18,900 -2,400 Descending Seattle Center
01:35PM 45.4431 -121.3172 281° West 331 381 17,500 -2,580 Descending Seattle Center
01:36PM 45.4503 -121.3894 278° West 335 386 16,300 -1,800 Descending Seattle Center
01:36PM 45.4581 -121.4283 286° West 332 382 15,900 -1,740 Descending Seattle Center
01:37PM 45.4656 -121.5169 277° West 328 377 14,600 -1,740 Descending Seattle Center
01:38PM 45.4847 -121.6675 280° West 311 358 12,600 -1,680 Descending Seattle Center
01:39PM 45.4944 -121.7611 278° West 311 358 11,200 -1,260 Descending Seattle Center
01:40PM 45.4731 -121.8639 254° West 271 312 10,300 -1,200 Descending Seattle Center
01:41PM 45.4489 -121.9597 250° West 245 282 8,800 -1,500 Descending Seattle Center
01:41PM 45.4411 -121.9883 249° West 227 261 8,400 -1,200 Descending Seattle Center
01:42PM 45.4308 -122.0381 254° West 217 250 7,600 -1,020 Descending Seattle Center
01:42PM 45.4231 -122.0578 241° Southwest 186 214 7,400 -840 Descending Seattle Center
01:43PM 45.4122 -122.1058 252° West 191 220 6,800 -840 Descending Seattle Center
01:43PM 45.4144 -122.1322 277° West 197 227 6,600 -840 Descending Seattle Center
01:44PM 45.4319 -122.1781 299° West 196 226 6,000 -960 Descending Seattle Center
01:45PM 45.4558 -122.2397 299° West 185 213 5,000 -840 Descending Seattle Center
01:46PM 45.4794 -122.2997 299° West 177 204 4,300 -840 Descending Seattle Center
01:47PM 45.5017 -122.3567 299° West 170 196 3,300 -1,080 Descending Seattle Center
01:48PM 45.5119 -122.3847 298° West 164 189 2,900 -900 Descending Seattle Center
01:48PM 45.5228 -122.4119 300° West 163 188 2,400 -900 Descending Seattle Center
01:48PM 45.5308 -122.4356 296° West 161 185 2,100 -1,020 Descending Seattle Center
01:49PM 45.5494 -122.4792 301° West 162 186 1,400 -840 Descending Seattle Center
01:50PM 45.5708 -122.5364 298° West 146 168 600 -480 Descending Seattle Center
01:51PM 45.5872 -122.5756 301° West 155 178 500 -120 Descending Seattle Center